sensor_id;sensor_type;location;lat;lon;timestamp;temperature;humidity
62581;DHT22;48640;48.770;9.148;2022-07-04T00:01:20;22.40;56.80
62581;DHT22;48640;48.770;9.148;2022-07-04T00:03:47;22.40;56.80
62581;DHT22;48640;48.770;9.148;2022-07-04T00:06:13;22.40;56.80
62581;DHT22;48640;48.770;9.148;2022-07-04T00:08:42;22.30;56.90
62581;DHT22;48640;48.770;9.148;2022-07-04T00:11:09;22.30;57.10
62581;DHT22;48640;48.770;9.148;2022-07-04T00:13:36;22.20;57.10
62581;DHT22;48640;48.770;9.148;2022-07-04T00:16:03;22.20;57.40
62581;DHT22;48640;48.770;9.148;2022-07-04T00:18:30;22.20;57.60
62581;DHT22;48640;48.770;9.148;2022-07-04T00:20:57;22.20;57.20
62581;DHT22;48640;48.770;9.148;2022-07-04T00:23:23;22.20;57.30
62581;DHT22;48640;48.770;9.148;2022-07-04T00:25:52;22.00;57.40
62581;DHT22;48640;48.770;9.148;2022-07-04T00:28:18;22.10;57.80
62581;DHT22;48640;48.770;9.148;2022-07-04T00:30:45;22.00;57.80
62581;DHT22;48640;48.770;9.148;2022-07-04T00:33:12;22.00;58.50
62581;DHT22;48640;48.770;9.148;2022-07-04T00:35:40;22.00;58.00
62581;DHT22;48640;48.770;9.148;2022-07-04T00:38:07;22.00;57.90
62581;DHT22;48640;48.770;9.148;2022-07-04T00:40:34;22.00;57.80
62581;DHT22;48640;48.770;9.148;2022-07-04T00:43:03;21.90;57.70
62581;DHT22;48640;48.770;9.148;2022-07-04T00:45:30;21.90;57.70
62581;DHT22;48640;48.770;9.148;2022-07-04T00:47:57;21.90;57.90
62581;DHT22;48640;48.770;9.148;2022-07-04T00:50:24;21.90;57.90
62581;DHT22;48640;48.770;9.148;2022-07-04T00:52:52;21.80;58.00
62581;DHT22;48640;48.770;9.148;2022-07-04T00:55:19;21.80;58.00
62581;DHT22;48640;48.770;9.148;2022-07-04T00:57:47;21.70;58.00
62581;DHT22;48640;48.770;9.148;2022-07-04T01:00:17;21.70;58.30
62581;DHT22;48640;48.770;9.148;2022-07-04T01:02:44;21.70;58.30
62581;DHT22;48640;48.770;9.148;2022-07-04T01:05:12;21.70;58.40
62581;DHT22;48640;48.770;9.148;2022-07-04T01:07:39;21.70;58.70
62581;DHT22;48640;48.770;9.148;2022-07-04T01:10:07;21.60;58.80
62581;DHT22;48640;48.770;9.148;2022-07-04T01:12:35;21.50;59.00
62581;DHT22;48640;48.770;9.148;2022-07-04T01:15:03;21.50;59.20
62581;DHT22;48640;48.770;9.148;2022-07-04T01:17:31;21.50;59.50
62581;DHT22;48640;48.770;9.148;2022-07-04T01:19:58;21.40;59.20
62581;DHT22;48640;48.770;9.148;2022-07-04T01:22:26;21.50;59.30
62581;DHT22;48640;48.770;9.148;2022-07-04T01:24:53;21.40;59.20
62581;DHT22;48640;48.770;9.148;2022-07-04T01:27:20;21.40;59.40
62581;DHT22;48640;48.770;9.148;2022-07-04T01:29:46;21.40;59.40
62581;DHT22;48640;48.770;9.148;2022-07-04T01:32:14;21.40;59.60
62581;DHT22;48640;48.770;9.148;2022-07-04T01:34:41;21.40;59.40
62581;DHT22;48640;48.770;9.148;2022-07-04T01:37:08;21.40;59.50
62581;DHT22;48640;48.770;9.148;2022-07-04T01:39:36;21.40;59.70
62581;DHT22;48640;48.770;9.148;2022-07-04T01:42:03;21.30;59.80
62581;DHT22;48640;48.770;9.148;2022-07-04T01:44:31;21.30;59.90
62581;DHT22;48640;48.770;9.148;2022-07-04T01:46:58;21.30;59.80
62581;DHT22;48640;48.770;9.148;2022-07-04T01:49:26;21.30;59.70
62581;DHT22;48640;48.770;9.148;2022-07-04T01:51:52;21.20;59.80
62581;DHT22;48640;48.770;9.148;2022-07-04T01:54:20;21.20;60.60
62581;DHT22;48640;48.770;9.148;2022-07-04T01:56:48;21.20;61.10
62581;DHT22;48640;48.770;9.148;2022-07-04T01:59:15;21.10;60.40
62581;DHT22;48640;48.770;9.148;2022-07-04T02:01:42;21.10;60.50
62581;DHT22;48640;48.770;9.148;2022-07-04T02:04:08;21.10;60.70
62581;DHT22;48640;48.770;9.148;2022-07-04T02:06:35;21.00;60.60
62581;DHT22;48640;48.770;9.148;2022-07-04T02:09:03;21.10;61.00
62581;DHT22;48640;48.770;9.148;2022-07-04T02:11:43;21.00;60.70
62581;DHT22;48640;48.770;9.148;2022-07-04T02:14:29;21.00;60.80
62581;DHT22;48640;48.770;9.148;2022-07-04T02:16:56;21.00;61.10
62581;DHT22;48640;48.770;9.148;2022-07-04T02:19:24;21.00;60.90
62581;DHT22;48640;48.770;9.148;2022-07-04T02:21:51;21.00;60.70
62581;DHT22;48640;48.770;9.148;2022-07-04T02:24:18;20.90;60.90
62581;DHT22;48640;48.770;9.148;2022-07-04T02:26:46;20.90;61.10
62581;DHT22;48640;48.770;9.148;2022-07-04T02:29:12;20.80;61.30
62581;DHT22;48640;48.770;9.148;2022-07-04T02:31:41;20.80;61.50
62581;DHT22;48640;48.770;9.148;2022-07-04T02:34:08;20.70;61.50
62581;DHT22;48640;48.770;9.148;2022-07-04T02:36:35;20.70;62.00
62581;DHT22;48640;48.770;9.148;2022-07-04T02:39:02;20.60;61.80
62581;DHT22;48640;48.770;9.148;2022-07-04T02:41:30;20.50;62.00
62581;DHT22;48640;48.770;9.148;2022-07-04T02:43:57;20.50;62.40
62581;DHT22;48640;48.770;9.148;2022-07-04T02:46:24;20.50;62.40
62581;DHT22;48640;48.770;9.148;2022-07-04T02:48:52;20.50;62.50
62581;DHT22;48640;48.770;9.148;2022-07-04T02:51:19;20.40;62.80
62581;DHT22;48640;48.770;9.148;2022-07-04T02:53:46;20.30;63.20
62581;DHT22;48640;48.770;9.148;2022-07-04T02:56:13;20.20;63.40
62581;DHT22;48640;48.770;9.148;2022-07-04T02:58:40;20.20;63.70
62581;DHT22;48640;48.770;9.148;2022-07-04T03:01:07;20.20;63.80
62581;DHT22;48640;48.770;9.148;2022-07-04T03:03:34;20.10;64.00
62581;DHT22;48640;48.770;9.148;2022-07-04T03:06:02;20.10;64.20
62581;DHT22;48640;48.770;9.148;2022-07-04T03:08:29;20.20;64.20
62581;DHT22;48640;48.770;9.148;2022-07-04T03:10:56;20.10;64.20
62581;DHT22;48640;48.770;9.148;2022-07-04T03:13:22;20.00;64.60
62581;DHT22;48640;48.770;9.148;2022-07-04T03:15:50;20.10;64.70
62581;DHT22;48640;48.770;9.148;2022-07-04T03:18:17;20.10;64.70
62581;DHT22;48640;48.770;9.148;2022-07-04T03:20:44;20.00;64.90
62581;DHT22;48640;48.770;9.148;2022-07-04T03:23:12;20.00;65.10
62581;DHT22;48640;48.770;9.148;2022-07-04T03:25:40;20.00;65.00
62581;DHT22;48640;48.770;9.148;2022-07-04T03:28:07;19.90;65.10
62581;DHT22;48640;48.770;9.148;2022-07-04T03:30:35;19.80;65.40
62581;DHT22;48640;48.770;9.148;2022-07-04T03:33:02;19.90;65.80
62581;DHT22;48640;48.770;9.148;2022-07-04T03:35:29;20.00;65.60
62581;DHT22;48640;48.770;9.148;2022-07-04T03:37:56;20.00;65.30
62581;DHT22;48640;48.770;9.148;2022-07-04T03:40:24;19.80;65.50
62581;DHT22;48640;48.770;9.148;2022-07-04T03:42:54;19.90;65.50
62581;DHT22;48640;48.770;9.148;2022-07-04T03:45:21;19.90;65.50
62581;DHT22;48640;48.770;9.148;2022-07-04T03:47:49;19.80;65.80
62581;DHT22;48640;48.770;9.148;2022-07-04T03:50:16;19.80;65.90
62581;DHT22;48640;48.770;9.148;2022-07-04T03:52:43;19.80;66.00
62581;DHT22;48640;48.770;9.148;2022-07-04T03:55:10;19.80;65.90
62581;DHT22;48640;48.770;9.148;2022-07-04T03:57:38;19.80;65.90
62581;DHT22;48640;48.770;9.148;2022-07-04T04:00:06;19.80;66.00
62581;DHT22;48640;48.770;9.148;2022-07-04T04:02:35;19.80;66.10
62581;DHT22;48640;48.770;9.148;2022-07-04T04:05:02;19.80;66.20
62581;DHT22;48640;48.770;9.148;2022-07-04T04:07:46;19.80;66.00
62581;DHT22;48640;48.770;9.148;2022-07-04T04:10:13;19.80;65.90
62581;DHT22;48640;48.770;9.148;2022-07-04T04:12:41;19.70;66.50
62581;DHT22;48640;48.770;9.148;2022-07-04T04:15:08;19.70;66.50
62581;DHT22;48640;48.770;9.148;2022-07-04T04:17:35;19.70;66.40
62581;DHT22;48640;48.770;9.148;2022-07-04T04:20:03;19.70;66.50
62581;DHT22;48640;48.770;9.148;2022-07-04T04:22:30;19.70;65.90
62581;DHT22;48640;48.770;9.148;2022-07-04T04:24:57;19.60;65.90
62581;DHT22;48640;48.770;9.148;2022-07-04T04:27:24;19.60;66.30
62581;DHT22;48640;48.770;9.148;2022-07-04T04:29:52;19.60;66.40
62581;DHT22;48640;48.770;9.148;2022-07-04T04:32:19;19.50;66.70
62581;DHT22;48640;48.770;9.148;2022-07-04T04:34:47;19.50;66.80
62581;DHT22;48640;48.770;9.148;2022-07-04T04:37:14;19.50;66.90
62581;DHT22;48640;48.770;9.148;2022-07-04T04:39:41;19.60;66.90
62581;DHT22;48640;48.770;9.148;2022-07-04T04:42:08;19.50;66.80
62581;DHT22;48640;48.770;9.148;2022-07-04T04:44:35;19.60;66.80
62581;DHT22;48640;48.770;9.148;2022-07-04T04:47:03;19.80;66.40
62581;DHT22;48640;48.770;9.148;2022-07-04T04:49:30;19.80;67.10
62581;DHT22;48640;48.770;9.148;2022-07-04T04:51:57;19.80;65.50
62581;DHT22;48640;48.770;9.148;2022-07-04T04:54:23;19.90;65.70
62581;DHT22;48640;48.770;9.148;2022-07-04T04:56:50;20.10;65.20
62581;DHT22;48640;48.770;9.148;2022-07-04T04:59:17;20.10;64.60
62581;DHT22;48640;48.770;9.148;2022-07-04T05:01:44;20.20;64.50
62581;DHT22;48640;48.770;9.148;2022-07-04T05:04:12;20.30;64.30
62581;DHT22;48640;48.770;9.148;2022-07-04T05:06:41;20.40;63.30
62581;DHT22;48640;48.770;9.148;2022-07-04T05:09:07;20.50;63.00
62581;DHT22;48640;48.770;9.148;2022-07-04T05:11:34;20.50;62.80
62581;DHT22;48640;48.770;9.148;2022-07-04T05:14:01;20.60;63.10
62581;DHT22;48640;48.770;9.148;2022-07-04T05:16:28;20.50;63.00
62581;DHT22;48640;48.770;9.148;2022-07-04T05:18:55;20.40;63.10
62581;DHT22;48640;48.770;9.148;2022-07-04T05:21:23;20.40;63.80
62581;DHT22;48640;48.770;9.148;2022-07-04T05:23:52;20.40;64.20
62581;DHT22;48640;48.770;9.148;2022-07-04T05:26:19;20.40;64.30
62581;DHT22;48640;48.770;9.148;2022-07-04T05:28:45;20.50;63.60
62581;DHT22;48640;48.770;9.148;2022-07-04T05:31:12;20.40;62.90
62581;DHT22;48640;48.770;9.148;2022-07-04T05:33:39;20.60;63.40
62581;DHT22;48640;48.770;9.148;2022-07-04T05:36:06;20.80;63.10
62581;DHT22;48640;48.770;9.148;2022-07-04T05:38:34;21.20;62.10
62581;DHT22;48640;48.770;9.148;2022-07-04T05:41:01;21.50;60.50
62581;DHT22;48640;48.770;9.148;2022-07-04T05:43:28;21.80;59.70
62581;DHT22;48640;48.770;9.148;2022-07-04T05:45:55;22.40;58.20
62581;DHT22;48640;48.770;9.148;2022-07-04T05:48:22;22.80;56.20
62581;DHT22;48640;48.770;9.148;2022-07-04T05:50:49;23.20;55.60
62581;DHT22;48640;48.770;9.148;2022-07-04T05:53:15;23.40;54.70
62581;DHT22;48640;48.770;9.148;2022-07-04T05:55:44;23.70;53.50
62581;DHT22;48640;48.770;9.148;2022-07-04T05:58:10;23.90;52.90
62581;DHT22;48640;48.770;9.148;2022-07-04T06:00:37;24.20;52.00
62581;DHT22;48640;48.770;9.148;2022-07-04T06:03:05;24.40;51.30
62581;DHT22;48640;48.770;9.148;2022-07-04T06:05:32;24.30;50.70
62581;DHT22;48640;48.770;9.148;2022-07-04T06:07:59;24.50;51.60
62581;DHT22;48640;48.770;9.148;2022-07-04T06:10:27;24.60;50.90
62581;DHT22;48640;48.770;9.148;2022-07-04T06:12:55;24.60;50.90
62581;DHT22;48640;48.770;9.148;2022-07-04T06:15:22;24.30;51.10
62581;DHT22;48640;48.770;9.148;2022-07-04T06:17:49;24.30;51.60
62581;DHT22;48640;48.770;9.148;2022-07-04T06:20:15;24.30;51.40
62581;DHT22;48640;48.770;9.148;2022-07-04T06:22:43;24.40;52.30
62581;DHT22;48640;48.770;9.148;2022-07-04T06:25:11;24.50;51.70
62581;DHT22;48640;48.770;9.148;2022-07-04T06:27:38;24.60;51.20
62581;DHT22;48640;48.770;9.148;2022-07-04T06:30:08;24.80;50.70
62581;DHT22;48640;48.770;9.148;2022-07-04T06:32:42;24.80;50.30
62581;DHT22;48640;48.770;9.148;2022-07-04T06:35:09;24.90;49.80
62581;DHT22;48640;48.770;9.148;2022-07-04T06:37:54;25.00;49.80
62581;DHT22;48640;48.770;9.148;2022-07-04T06:40:21;25.50;49.30
62581;DHT22;48640;48.770;9.148;2022-07-04T06:42:48;25.90;48.10
62581;DHT22;48640;48.770;9.148;2022-07-04T06:45:16;26.20;47.20
62581;DHT22;48640;48.770;9.148;2022-07-04T06:47:43;26.10;47.90
62581;DHT22;48640;48.770;9.148;2022-07-04T06:50:10;25.90;47.80
62581;DHT22;48640;48.770;9.148;2022-07-04T06:52:37;26.10;47.70
62581;DHT22;48640;48.770;9.148;2022-07-04T06:55:04;26.00;47.50
62581;DHT22;48640;48.770;9.148;2022-07-04T06:57:31;25.80;47.80
62581;DHT22;48640;48.770;9.148;2022-07-04T06:59:58;25.50;48.00
62581;DHT22;48640;48.770;9.148;2022-07-04T07:02:27;25.30;48.60
62581;DHT22;48640;48.770;9.148;2022-07-04T07:04:54;25.20;48.90
62581;DHT22;48640;48.770;9.148;2022-07-04T07:07:21;25.10;48.90
62581;DHT22;48640;48.770;9.148;2022-07-04T07:09:50;25.10;49.30
62581;DHT22;48640;48.770;9.148;2022-07-04T07:12:17;24.90;49.50
62581;DHT22;48640;48.770;9.148;2022-07-04T07:14:44;25.10;49.20
62581;DHT22;48640;48.770;9.148;2022-07-04T07:17:10;25.60;49.00
62581;DHT22;48640;48.770;9.148;2022-07-04T07:19:39;25.70;48.70
62581;DHT22;48640;48.770;9.148;2022-07-04T07:22:05;25.60;48.40
62581;DHT22;48640;48.770;9.148;2022-07-04T07:24:32;25.50;48.60
62581;DHT22;48640;48.770;9.148;2022-07-04T07:27:00;25.40;48.60
62581;DHT22;48640;48.770;9.148;2022-07-04T07:29:27;25.20;48.60
62581;DHT22;48640;48.770;9.148;2022-07-04T07:31:54;24.70;49.50
62581;DHT22;48640;48.770;9.148;2022-07-04T07:34:21;24.40;51.30
62581;DHT22;48640;48.770;9.148;2022-07-04T07:36:49;24.30;51.10
62581;DHT22;48640;48.770;9.148;2022-07-04T07:39:16;24.20;51.60
62581;DHT22;48640;48.770;9.148;2022-07-04T07:41:42;24.20;51.80
62581;DHT22;48640;48.770;9.148;2022-07-04T07:44:09;24.20;52.10
62581;DHT22;48640;48.770;9.148;2022-07-04T07:46:36;24.30;52.40
62581;DHT22;48640;48.770;9.148;2022-07-04T07:49:03;24.20;52.30
62581;DHT22;48640;48.770;9.148;2022-07-04T07:51:30;23.90;52.20
62581;DHT22;48640;48.770;9.148;2022-07-04T07:53:58;24.20;52.90
62581;DHT22;48640;48.770;9.148;2022-07-04T07:56:25;24.30;53.00
62581;DHT22;48640;48.770;9.148;2022-07-04T07:58:52;24.60;51.90
62581;DHT22;48640;48.770;9.148;2022-07-04T08:01:20;24.60;52.00
62581;DHT22;48640;48.770;9.148;2022-07-04T08:03:47;24.90;50.90
62581;DHT22;48640;48.770;9.148;2022-07-04T08:06:32;24.90;51.10
62581;DHT22;48640;48.770;9.148;2022-07-04T08:09:00;24.70;51.30
62581;DHT22;48640;48.770;9.148;2022-07-04T08:11:27;24.80;51.60
62581;DHT22;48640;48.770;9.148;2022-07-04T08:13:54;24.80;51.60
62581;DHT22;48640;48.770;9.148;2022-07-04T08:16:21;24.70;51.60
62581;DHT22;48640;48.770;9.148;2022-07-04T08:18:48;24.50;52.60
62581;DHT22;48640;48.770;9.148;2022-07-04T08:21:15;24.50;53.00
62581;DHT22;48640;48.770;9.148;2022-07-04T08:23:42;24.40;52.80
62581;DHT22;48640;48.770;9.148;2022-07-04T08:26:10;24.30;53.20
62581;DHT22;48640;48.770;9.148;2022-07-04T08:28:37;24.40;52.60
62581;DHT22;48640;48.770;9.148;2022-07-04T08:31:04;24.20;53.00
62581;DHT22;48640;48.770;9.148;2022-07-04T08:33:31;24.20;53.00
62581;DHT22;48640;48.770;9.148;2022-07-04T08:35:57;24.30;52.20
62581;DHT22;48640;48.770;9.148;2022-07-04T08:38:24;24.40;52.50
62581;DHT22;48640;48.770;9.148;2022-07-04T08:40:56;24.40;52.20
62581;DHT22;48640;48.770;9.148;2022-07-04T08:43:25;24.60;52.20
62581;DHT22;48640;48.770;9.148;2022-07-04T08:45:53;24.70;51.40
62581;DHT22;48640;48.770;9.148;2022-07-04T08:48:23;25.20;51.30
62581;DHT22;48640;48.770;9.148;2022-07-04T08:50:55;25.70;49.50
62581;DHT22;48640;48.770;9.148;2022-07-04T08:53:26;25.80;49.10
62581;DHT22;48640;48.770;9.148;2022-07-04T08:55:53;25.50;49.50
62581;DHT22;48640;48.770;9.148;2022-07-04T08:58:42;25.80;49.70
62581;DHT22;48640;48.770;9.148;2022-07-04T09:01:11;26.10;47.70
62581;DHT22;48640;48.770;9.148;2022-07-04T09:03:41;26.20;47.80
62581;DHT22;48640;48.770;9.148;2022-07-04T09:06:09;26.50;47.70
62581;DHT22;48640;48.770;9.148;2022-07-04T09:08:37;26.70;46.80
62581;DHT22;48640;48.770;9.148;2022-07-04T09:11:04;27.10;46.30
62581;DHT22;48640;48.770;9.148;2022-07-04T09:13:31;27.40;45.30
62581;DHT22;48640;48.770;9.148;2022-07-04T09:16:00;27.00;46.20
62581;DHT22;48640;48.770;9.148;2022-07-04T09:18:29;26.90;45.60
62581;DHT22;48640;48.770;9.148;2022-07-04T09:20:57;27.00;46.40
62581;DHT22;48640;48.770;9.148;2022-07-04T09:23:26;28.60;44.80
62581;DHT22;48640;48.770;9.148;2022-07-04T09:26:12;30.60;40.20
62581;DHT22;48640;48.770;9.148;2022-07-04T09:28:41;31.20;37.40
62581;DHT22;48640;48.770;9.148;2022-07-04T09:31:18;34.70;35.00
62581;DHT22;48640;48.770;9.148;2022-07-04T09:33:47;37.00;30.00
62581;DHT22;48640;48.770;9.148;2022-07-04T09:36:16;36.50;28.80
62581;DHT22;48640;48.770;9.148;2022-07-04T09:38:44;36.60;29.10
62581;DHT22;48640;48.770;9.148;2022-07-04T09:41:11;38.10;27.70
62581;DHT22;48640;48.770;9.148;2022-07-04T09:43:59;38.70;27.00
62581;DHT22;48640;48.770;9.148;2022-07-04T09:46:28;39.70;27.60
62581;DHT22;48640;48.770;9.148;2022-07-04T09:48:55;40.40;24.80
62581;DHT22;48640;48.770;9.148;2022-07-04T09:51:36;40.60;24.60
62581;DHT22;48640;48.770;9.148;2022-07-04T09:54:21;40.20;24.80
62581;DHT22;48640;48.770;9.148;2022-07-04T09:56:51;38.70;26.50
62581;DHT22;48640;48.770;9.148;2022-07-04T09:59:18;39.40;25.90
62581;DHT22;48640;48.770;9.148;2022-07-04T10:01:47;40.70;24.10
62581;DHT22;48640;48.770;9.148;2022-07-04T10:04:14;42.10;23.20
62581;DHT22;48640;48.770;9.148;2022-07-04T10:06:42;42.00;22.60
62581;DHT22;48640;48.770;9.148;2022-07-04T10:09:10;41.40;22.70
62581;DHT22;48640;48.770;9.148;2022-07-04T10:11:38;41.80;23.20
62581;DHT22;48640;48.770;9.148;2022-07-04T10:14:06;42.30;22.60
62581;DHT22;48640;48.770;9.148;2022-07-04T10:16:34;41.70;23.10
62581;DHT22;48640;48.770;9.148;2022-07-04T10:19:03;41.80;23.40
62581;DHT22;48640;48.770;9.148;2022-07-04T10:21:31;41.60;23.10
62581;DHT22;48640;48.770;9.148;2022-07-04T10:23:58;41.50;22.50
62581;DHT22;48640;48.770;9.148;2022-07-04T10:26:27;40.20;23.00
62581;DHT22;48640;48.770;9.148;2022-07-04T10:28:55;39.70;24.60
62581;DHT22;48640;48.770;9.148;2022-07-04T10:31:23;37.40;26.30
62581;DHT22;48640;48.770;9.148;2022-07-04T10:33:51;36.90;26.80
62581;DHT22;48640;48.770;9.148;2022-07-04T10:36:23;34.90;28.50
62581;DHT22;48640;48.770;9.148;2022-07-04T10:38:55;36.20;28.10
62581;DHT22;48640;48.770;9.148;2022-07-04T10:41:23;37.00;27.70
62581;DHT22;48640;48.770;9.148;2022-07-04T10:44:02;36.80;27.70
62581;DHT22;48640;48.770;9.148;2022-07-04T10:46:36;36.20;28.20
62581;DHT22;48640;48.770;9.148;2022-07-04T10:49:06;36.60;27.80
62581;DHT22;48640;48.770;9.148;2022-07-04T10:51:53;36.10;27.50
62581;DHT22;48640;48.770;9.148;2022-07-04T10:54:27;34.50;29.40
62581;DHT22;48640;48.770;9.148;2022-07-04T10:56:56;33.00;30.90
62581;DHT22;48640;48.770;9.148;2022-07-04T10:59:25;32.90;32.50
62581;DHT22;48640;48.770;9.148;2022-07-04T11:04:52;32.50;30.80
62581;DHT22;48640;48.770;9.148;2022-07-04T11:07:21;32.40;32.10
62581;DHT22;48640;48.770;9.148;2022-07-04T11:10:19;32.70;32.60
62581;DHT22;48640;48.770;9.148;2022-07-04T11:16:02;32.90;32.20
62581;DHT22;48640;48.770;9.148;2022-07-04T11:18:29;32.50;32.50
62581;DHT22;48640;48.770;9.148;2022-07-04T11:20:57;32.70;33.10
62581;DHT22;48640;48.770;9.148;2022-07-04T11:23:25;32.70;32.60
62581;DHT22;48640;48.770;9.148;2022-07-04T11:25:52;32.80;32.50
62581;DHT22;48640;48.770;9.148;2022-07-04T11:28:23;32.70;33.40
62581;DHT22;48640;48.770;9.148;2022-07-04T11:30:50;32.60;33.10
62581;DHT22;48640;48.770;9.148;2022-07-04T11:33:19;32.40;32.80
62581;DHT22;48640;48.770;9.148;2022-07-04T11:36:01;30.00;34.80
62581;DHT22;48640;48.770;9.148;2022-07-04T11:41:26;28.20;40.10
62581;DHT22;48640;48.770;9.148;2022-07-04T11:44:13;29.00;39.70
62581;DHT22;48640;48.770;9.148;2022-07-04T11:47:05;30.50;37.90
62581;DHT22;48640;48.770;9.148;2022-07-04T11:49:32;31.40;36.40
62581;DHT22;48640;48.770;9.148;2022-07-04T11:51:59;31.50;35.00
62581;DHT22;48640;48.770;9.148;2022-07-04T11:54:26;31.50;35.40
62581;DHT22;48640;48.770;9.148;2022-07-04T11:57:11;31.60;35.50
62581;DHT22;48640;48.770;9.148;2022-07-04T11:59:38;31.40;34.70
62581;DHT22;48640;48.770;9.148;2022-07-04T12:02:13;31.30;35.70
62581;DHT22;48640;48.770;9.148;2022-07-04T12:04:40;31.70;35.10
62581;DHT22;48640;48.770;9.148;2022-07-04T12:07:15;32.00;34.80
62581;DHT22;48640;48.770;9.148;2022-07-04T12:09:43;32.00;34.10
62581;DHT22;48640;48.770;9.148;2022-07-04T12:12:12;31.90;33.40
62581;DHT22;48640;48.770;9.148;2022-07-04T12:14:48;32.20;33.90
62581;DHT22;48640;48.770;9.148;2022-07-04T12:17:22;32.50;33.90
62581;DHT22;48640;48.770;9.148;2022-07-04T12:19:53;30.40;34.70
62581;DHT22;48640;48.770;9.148;2022-07-04T12:22:33;28.30;38.40
62581;DHT22;48640;48.770;9.148;2022-07-04T12:25:01;28.00;41.30
62581;DHT22;48640;48.770;9.148;2022-07-04T12:27:30;28.20;40.50
62581;DHT22;48640;48.770;9.148;2022-07-04T12:29:57;28.50;40.40
62581;DHT22;48640;48.770;9.148;2022-07-04T12:32:43;28.50;40.00
62581;DHT22;48640;48.770;9.148;2022-07-04T12:35:35;28.60;40.30
62581;DHT22;48640;48.770;9.148;2022-07-04T12:38:03;28.50;39.60
62581;DHT22;48640;48.770;9.148;2022-07-04T12:40:30;27.80;40.40
62581;DHT22;48640;48.770;9.148;2022-07-04T12:42:59;27.30;41.70
62581;DHT22;48640;48.770;9.148;2022-07-04T12:45:26;27.40;43.20
62581;DHT22;48640;48.770;9.148;2022-07-04T12:48:14;27.70;41.90
62581;DHT22;48640;48.770;9.148;2022-07-04T12:50:41;27.90;42.00
62581;DHT22;48640;48.770;9.148;2022-07-04T12:53:09;27.50;41.50
62581;DHT22;48640;48.770;9.148;2022-07-04T12:55:37;27.70;42.90
62581;DHT22;48640;48.770;9.148;2022-07-04T12:58:05;27.20;42.60
62581;DHT22;48640;48.770;9.148;2022-07-04T13:00:32;27.10;42.40
62581;DHT22;48640;48.770;9.148;2022-07-04T13:02:59;27.60;43.20
62581;DHT22;48640;48.770;9.148;2022-07-04T13:05:26;27.80;42.80
62581;DHT22;48640;48.770;9.148;2022-07-04T13:07:53;28.20;41.40
62581;DHT22;48640;48.770;9.148;2022-07-04T13:10:20;28.60;40.00
62581;DHT22;48640;48.770;9.148;2022-07-04T13:12:47;28.70;40.40
62581;DHT22;48640;48.770;9.148;2022-07-04T13:15:16;28.40;40.20
62581;DHT22;48640;48.770;9.148;2022-07-04T13:17:43;28.60;40.50
62581;DHT22;48640;48.770;9.148;2022-07-04T13:20:10;28.60;40.20
62581;DHT22;48640;48.770;9.148;2022-07-04T13:22:38;28.60;40.50
62581;DHT22;48640;48.770;9.148;2022-07-04T13:25:05;28.60;40.60
62581;DHT22;48640;48.770;9.148;2022-07-04T13:27:33;28.80;39.90
62581;DHT22;48640;48.770;9.148;2022-07-04T13:30:00;28.60;39.20
62581;DHT22;48640;48.770;9.148;2022-07-04T13:32:28;28.30;40.00
62581;DHT22;48640;48.770;9.148;2022-07-04T13:34:55;28.10;40.30
62581;DHT22;48640;48.770;9.148;2022-07-04T13:37:23;28.00;41.00
62581;DHT22;48640;48.770;9.148;2022-07-04T13:39:49;27.70;42.50
62581;DHT22;48640;48.770;9.148;2022-07-04T13:42:16;28.00;41.40
62581;DHT22;48640;48.770;9.148;2022-07-04T13:45:04;27.80;42.00
62581;DHT22;48640;48.770;9.148;2022-07-04T13:47:32;27.70;42.50
62581;DHT22;48640;48.770;9.148;2022-07-04T13:50:00;27.80;41.90
62581;DHT22;48640;48.770;9.148;2022-07-04T13:52:27;27.70;42.30
62581;DHT22;48640;48.770;9.148;2022-07-04T13:54:53;28.00;41.60
62581;DHT22;48640;48.770;9.148;2022-07-04T13:57:20;28.30;41.90
62581;DHT22;48640;48.770;9.148;2022-07-04T13:59:47;28.40;41.40
62581;DHT22;48640;48.770;9.148;2022-07-04T14:02:14;28.40;40.60
62581;DHT22;48640;48.770;9.148;2022-07-04T14:04:42;28.50;42.00
62581;DHT22;48640;48.770;9.148;2022-07-04T14:07:09;28.80;41.80
62581;DHT22;48640;48.770;9.148;2022-07-04T14:09:35;28.90;41.30
62581;DHT22;48640;48.770;9.148;2022-07-04T14:12:03;28.90;41.20
62581;DHT22;48640;48.770;9.148;2022-07-04T14:14:30;28.70;41.10
62581;DHT22;48640;48.770;9.148;2022-07-04T14:16:57;28.60;41.20
62581;DHT22;48640;48.770;9.148;2022-07-04T14:19:23;28.70;41.20
62581;DHT22;48640;48.770;9.148;2022-07-04T14:21:52;28.20;41.30
62581;DHT22;48640;48.770;9.148;2022-07-04T14:24:18;27.30;43.10
62581;DHT22;48640;48.770;9.148;2022-07-04T14:26:45;26.80;44.40
62581;DHT22;48640;48.770;9.148;2022-07-04T14:29:12;26.80;45.40
62581;DHT22;48640;48.770;9.148;2022-07-04T14:31:39;26.80;45.60
62581;DHT22;48640;48.770;9.148;2022-07-04T14:34:06;27.00;45.40
62581;DHT22;48640;48.770;9.148;2022-07-04T14:36:35;26.80;45.80
62581;DHT22;48640;48.770;9.148;2022-07-04T14:39:03;27.10;45.40
62581;DHT22;48640;48.770;9.148;2022-07-04T14:41:31;27.40;45.20
62581;DHT22;48640;48.770;9.148;2022-07-04T14:43:58;27.40;44.50
62581;DHT22;48640;48.770;9.148;2022-07-04T14:46:25;27.30;44.60
62581;DHT22;48640;48.770;9.148;2022-07-04T14:48:52;27.30;44.70
62581;DHT22;48640;48.770;9.148;2022-07-04T14:51:19;27.10;44.80
62581;DHT22;48640;48.770;9.148;2022-07-04T14:53:46;27.00;45.50
62581;DHT22;48640;48.770;9.148;2022-07-04T14:56:14;26.90;45.50
62581;DHT22;48640;48.770;9.148;2022-07-04T14:58:41;26.90;46.00
62581;DHT22;48640;48.770;9.148;2022-07-04T15:01:07;27.00;46.10
62581;DHT22;48640;48.770;9.148;2022-07-04T15:03:34;27.00;45.40
62581;DHT22;48640;48.770;9.148;2022-07-04T15:06:04;26.80;45.90
62581;DHT22;48640;48.770;9.148;2022-07-04T15:08:31;27.00;46.00
62581;DHT22;48640;48.770;9.148;2022-07-04T15:10:58;27.10;45.10
62581;DHT22;48640;48.770;9.148;2022-07-04T15:13:26;27.10;45.00
62581;DHT22;48640;48.770;9.148;2022-07-04T15:15:53;27.20;45.20
62581;DHT22;48640;48.770;9.148;2022-07-04T15:18:20;26.90;44.90
62581;DHT22;48640;48.770;9.148;2022-07-04T15:20:47;27.00;44.70
62581;DHT22;48640;48.770;9.148;2022-07-04T15:23:31;27.10;44.80
62581;DHT22;48640;48.770;9.148;2022-07-04T15:26:15;27.10;45.40
62581;DHT22;48640;48.770;9.148;2022-07-04T15:28:43;27.20;45.10
62581;DHT22;48640;48.770;9.148;2022-07-04T15:31:10;27.30;44.50
62581;DHT22;48640;48.770;9.148;2022-07-04T15:33:38;27.30;43.50
62581;DHT22;48640;48.770;9.148;2022-07-04T15:36:05;27.10;44.70
62581;DHT22;48640;48.770;9.148;2022-07-04T15:38:33;27.20;44.70
62581;DHT22;48640;48.770;9.148;2022-07-04T15:41:00;27.10;43.80
62581;DHT22;48640;48.770;9.148;2022-07-04T15:43:28;27.40;43.90
62581;DHT22;48640;48.770;9.148;2022-07-04T15:45:57;27.30;43.40
62581;DHT22;48640;48.770;9.148;2022-07-04T15:48:24;27.40;43.60